首页
METAR-TAF:

METAR-TAF

机场 :

Exmouth, 澳大利亚

纬度: 22-14S, 经度: 114-05E, 海拔: 5米

当前天气观测

该预报发布于23分钟前的00:30 UTC
风速7节,风向南转西南
温度 18°C
湿度 56%
气压 1022 hPa
能见度10公里或以上

METAR: YPLM 310030Z AUTO 20007KT 9999 // NCD 18/09 Q1022 RF00.0/000.0

时间: 08:53 (00:53 UTC)

预报

该预报发布于1小时和44分钟前的23:09 UTC
预报有效从31日的 00点(UTC)到 01日的 00点(UTC)
风速13节,风向东南
能见度10公里或以上
1500米以下无云,无积雨云
从 31日的 1100点(UTC)
风速7节,风向南转西南
能见度10公里或以上
1500米以下无云,无积雨云

TAF: YPLM 302309Z 3100/0100 13013KT CAVOK FM311100 21007KT CAVOK

超过4000个机场的气象观测和天气预报(METAR&TAF报告)。

可查询的气象台以黄色和红色小点在地图上表示。

将鼠标移到小点上方,可查看气象台名称。

然后点击查看天气观测和预报。

如需切换地图:点击带黑十字的绿色按钮放大地图;点击带横线的绿色按钮缩小地图;或者点击绿色箭头查看邻近地区的地图。


METAR-TAF: